sensor_id;sensor_type;location;lat;lon;timestamp;P1;durP1;ratioP1;P2;durP2;ratioP2
78368;SDS011;71113;43.092;-89.268;2023-08-08T00:01:38;8.23;;;5.03;;
78368;SDS011;71113;43.092;-89.268;2023-08-08T00:04:08;6.45;;;4.43;;
78368;SDS011;71113;43.092;-89.268;2023-08-08T00:06:35;6.75;;;4.60;;
78368;SDS011;71113;43.092;-89.268;2023-08-08T00:09:01;6.30;;;4.13;;
78368;SDS011;71113;43.092;-89.268;2023-08-08T00:11:28;6.88;;;4.22;;
78368;SDS011;71113;43.092;-89.268;2023-08-08T00:13:55;6.10;;;3.90;;
78368;SDS011;71113;43.092;-89.268;2023-08-08T00:16:21;6.15;;;3.85;;
78368;SDS011;71113;43.092;-89.268;2023-08-08T00:18:47;5.50;;;3.53;;
78368;SDS011;71113;43.092;-89.268;2023-08-08T00:21:15;4.95;;;3.55;;
78368;SDS011;71113;43.092;-89.268;2023-08-08T00:23:42;5.32;;;3.30;;
78368;SDS011;71113;43.092;-89.268;2023-08-08T00:26:08;5.03;;;3.25;;
78368;SDS011;71113;43.092;-89.268;2023-08-08T00:28:34;5.03;;;3.03;;
78368;SDS011;71113;43.092;-89.268;2023-08-08T00:30:59;4.63;;;3.25;;
78368;SDS011;71113;43.092;-89.268;2023-08-08T00:33:25;4.28;;;3.00;;
78368;SDS011;71113;43.092;-89.268;2023-08-08T00:35:51;4.07;;;2.88;;
78368;SDS011;71113;43.092;-89.268;2023-08-08T00:38:17;4.53;;;2.95;;
78368;SDS011;71113;43.092;-89.268;2023-08-08T00:40:43;4.65;;;2.63;;
78368;SDS011;71113;43.092;-89.268;2023-08-08T00:43:10;4.03;;;2.70;;
78368;SDS011;71113;43.092;-89.268;2023-08-08T00:45:44;3.92;;;2.75;;
78368;SDS011;71113;43.092;-89.268;2023-08-08T00:48:11;3.92;;;2.45;;
78368;SDS011;71113;43.092;-89.268;2023-08-08T00:50:37;4.95;;;3.22;;
78368;SDS011;71113;43.092;-89.268;2023-08-08T00:53:06;4.47;;;2.40;;
78368;SDS011;71113;43.092;-89.268;2023-08-08T00:55:32;3.85;;;2.50;;
78368;SDS011;71113;43.092;-89.268;2023-08-08T00:57:58;3.92;;;2.25;;
78368;SDS011;71113;43.092;-89.268;2023-08-08T01:00:31;3.58;;;2.15;;
78368;SDS011;71113;43.092;-89.268;2023-08-08T01:02:57;3.47;;;2.20;;
78368;SDS011;71113;43.092;-89.268;2023-08-08T01:05:23;3.30;;;1.80;;
78368;SDS011;71113;43.092;-89.268;2023-08-08T01:08:00;3.63;;;2.15;;
78368;SDS011;71113;43.092;-89.268;2023-08-08T01:10:32;3.60;;;2.13;;
78368;SDS011;71113;43.092;-89.268;2023-08-08T01:13:03;3.05;;;1.83;;
78368;SDS011;71113;43.092;-89.268;2023-08-08T01:15:58;3.35;;;1.90;;
78368;SDS011;71113;43.092;-89.268;2023-08-08T01:18:25;3.20;;;2.03;;
78368;SDS011;71113;43.092;-89.268;2023-08-08T01:20:53;2.60;;;1.55;;
78368;SDS011;71113;43.092;-89.268;2023-08-08T01:25:49;2.60;;;1.60;;
78368;SDS011;71113;43.092;-89.268;2023-08-08T01:28:16;3.70;;;1.90;;
78368;SDS011;71113;43.092;-89.268;2023-08-08T01:30:47;2.53;;;1.50;;
78368;SDS011;71113;43.092;-89.268;2023-08-08T01:33:13;3.08;;;1.80;;
78368;SDS011;71113;43.092;-89.268;2023-08-08T01:35:41;2.60;;;1.58;;
78368;SDS011;71113;43.092;-89.268;2023-08-08T01:38:14;2.33;;;1.50;;
78368;SDS011;71113;43.092;-89.268;2023-08-08T01:40:45;2.28;;;1.40;;
78368;SDS011;71113;43.092;-89.268;2023-08-08T01:43:12;2.38;;;1.50;;
78368;SDS011;71113;43.092;-89.268;2023-08-08T01:45:40;2.10;;;1.40;;
78368;SDS011;71113;43.092;-89.268;2023-08-08T01:48:08;2.35;;;1.50;;
78368;SDS011;71113;43.092;-89.268;2023-08-08T01:50:36;1.73;;;1.23;;
78368;SDS011;71113;43.092;-89.268;2023-08-08T01:53:02;2.33;;;1.35;;
78368;SDS011;71113;43.092;-89.268;2023-08-08T01:55:30;2.85;;;1.63;;
78368;SDS011;71113;43.092;-89.268;2023-08-08T01:58:03;2.03;;;1.30;;
78368;SDS011;71113;43.092;-89.268;2023-08-08T02:00:29;2.20;;;1.40;;
78368;SDS011;71113;43.092;-89.268;2023-08-08T02:02:55;2.05;;;1.40;;
78368;SDS011;71113;43.092;-89.268;2023-08-08T02:05:21;3.88;;;1.33;;
78368;SDS011;71113;43.092;-89.268;2023-08-08T02:07:47;2.72;;;1.50;;
78368;SDS011;71113;43.092;-89.268;2023-08-08T02:10:13;2.10;;;1.23;;
78368;SDS011;71113;43.092;-89.268;2023-08-08T02:12:38;3.40;;;1.10;;
78368;SDS011;71113;43.092;-89.268;2023-08-08T02:15:04;1.95;;;1.30;;
78368;SDS011;71113;43.092;-89.268;2023-08-08T02:17:31;2.10;;;1.08;;
78368;SDS011;71113;43.092;-89.268;2023-08-08T02:19:57;1.85;;;1.10;;
78368;SDS011;71113;43.092;-89.268;2023-08-08T02:22:23;2.00;;;1.27;;
78368;SDS011;71113;43.092;-89.268;2023-08-08T02:24:49;1.77;;;1.10;;
78368;SDS011;71113;43.092;-89.268;2023-08-08T02:27:15;3.03;;;1.45;;
78368;SDS011;71113;43.092;-89.268;2023-08-08T02:29:41;3.20;;;1.20;;
78368;SDS011;71113;43.092;-89.268;2023-08-08T02:32:07;27.42;;;7.15;;
78368;SDS011;71113;43.092;-89.268;2023-08-08T02:34:33;19.17;;;6.88;;
78368;SDS011;71113;43.092;-89.268;2023-08-08T02:36:59;32.47;;;12.40;;
78368;SDS011;71113;43.092;-89.268;2023-08-08T02:39:25;38.45;;;16.77;;
78368;SDS011;71113;43.092;-89.268;2023-08-08T02:41:51;39.90;;;17.10;;
78368;SDS011;71113;43.092;-89.268;2023-08-08T02:44:17;40.38;;;18.35;;
78368;SDS011;71113;43.092;-89.268;2023-08-08T02:46:44;46.67;;;20.85;;
78368;SDS011;71113;43.092;-89.268;2023-08-08T02:49:10;41.22;;;16.70;;
78368;SDS011;71113;43.092;-89.268;2023-08-08T02:51:37;33.85;;;15.50;;
78368;SDS011;71113;43.092;-89.268;2023-08-08T02:54:03;28.63;;;13.70;;
78368;SDS011;71113;43.092;-89.268;2023-08-08T02:56:29;22.42;;;10.80;;
78368;SDS011;71113;43.092;-89.268;2023-08-08T02:58:55;20.52;;;9.75;;
78368;SDS011;71113;43.092;-89.268;2023-08-08T03:01:21;20.38;;;9.30;;
78368;SDS011;71113;43.092;-89.268;2023-08-08T03:03:47;20.33;;;8.45;;
78368;SDS011;71113;43.092;-89.268;2023-08-08T03:06:14;16.15;;;7.72;;
78368;SDS011;71113;43.092;-89.268;2023-08-08T03:08:40;14.82;;;6.90;;
78368;SDS011;71113;43.092;-89.268;2023-08-08T03:11:05;15.23;;;7.00;;
78368;SDS011;71113;43.092;-89.268;2023-08-08T03:13:32;13.77;;;5.85;;
78368;SDS011;71113;43.092;-89.268;2023-08-08T03:15:57;11.00;;;5.57;;
78368;SDS011;71113;43.092;-89.268;2023-08-08T03:18:23;11.70;;;5.45;;
78368;SDS011;71113;43.092;-89.268;2023-08-08T03:20:51;10.63;;;5.05;;
78368;SDS011;71113;43.092;-89.268;2023-08-08T03:23:38;9.38;;;4.40;;
78368;SDS011;71113;43.092;-89.268;2023-08-08T03:26:04;7.93;;;3.67;;
78368;SDS011;71113;43.092;-89.268;2023-08-08T03:28:30;8.23;;;3.95;;
78368;SDS011;71113;43.092;-89.268;2023-08-08T03:30:55;6.53;;;3.38;;
78368;SDS011;71113;43.092;-89.268;2023-08-08T03:33:21;7.05;;;3.78;;
78368;SDS011;71113;43.092;-89.268;2023-08-08T03:35:47;5.57;;;3.17;;
78368;SDS011;71113;43.092;-89.268;2023-08-08T03:38:13;6.35;;;3.63;;
78368;SDS011;71113;43.092;-89.268;2023-08-08T03:40:39;6.97;;;3.15;;
78368;SDS011;71113;43.092;-89.268;2023-08-08T03:43:05;6.00;;;2.90;;
78368;SDS011;71113;43.092;-89.268;2023-08-08T03:45:31;6.18;;;2.80;;
78368;SDS011;71113;43.092;-89.268;2023-08-08T03:47:57;4.47;;;2.38;;
78368;SDS011;71113;43.092;-89.268;2023-08-08T03:50:23;9.10;;;2.47;;
78368;SDS011;71113;43.092;-89.268;2023-08-08T03:52:48;4.65;;;2.15;;
78368;SDS011;71113;43.092;-89.268;2023-08-08T03:55:14;5.97;;;2.70;;
78368;SDS011;71113;43.092;-89.268;2023-08-08T03:57:40;4.05;;;2.22;;
78368;SDS011;71113;43.092;-89.268;2023-08-08T04:00:07;4.93;;;2.20;;
78368;SDS011;71113;43.092;-89.268;2023-08-08T04:02:33;4.53;;;2.20;;
78368;SDS011;71113;43.092;-89.268;2023-08-08T04:04:59;4.05;;;2.33;;
78368;SDS011;71113;43.092;-89.268;2023-08-08T04:07:25;4.40;;;1.95;;
78368;SDS011;71113;43.092;-89.268;2023-08-08T04:09:51;4.18;;;2.00;;
78368;SDS011;71113;43.092;-89.268;2023-08-08T04:12:17;3.53;;;1.80;;
78368;SDS011;71113;43.092;-89.268;2023-08-08T04:14:43;3.60;;;1.90;;
78368;SDS011;71113;43.092;-89.268;2023-08-08T04:17:09;3.88;;;1.70;;
78368;SDS011;71113;43.092;-89.268;2023-08-08T04:19:34;3.50;;;1.90;;
78368;SDS011;71113;43.092;-89.268;2023-08-08T04:22:00;3.28;;;1.60;;
78368;SDS011;71113;43.092;-89.268;2023-08-08T04:24:26;3.03;;;1.77;;
78368;SDS011;71113;43.092;-89.268;2023-08-08T04:26:52;3.72;;;1.52;;
78368;SDS011;71113;43.092;-89.268;2023-08-08T04:29:18;3.38;;;1.67;;
78368;SDS011;71113;43.092;-89.268;2023-08-08T04:31:44;3.33;;;1.60;;
78368;SDS011;71113;43.092;-89.268;2023-08-08T04:34:10;3.00;;;1.80;;
78368;SDS011;71113;43.092;-89.268;2023-08-08T04:36:36;3.75;;;1.50;;
78368;SDS011;71113;43.092;-89.268;2023-08-08T04:39:02;3.08;;;1.52;;
78368;SDS011;71113;43.092;-89.268;2023-08-08T04:41:28;3.00;;;1.42;;
78368;SDS011;71113;43.092;-89.268;2023-08-08T04:43:54;2.80;;;1.40;;
78368;SDS011;71113;43.092;-89.268;2023-08-08T04:46:20;2.78;;;1.50;;
78368;SDS011;71113;43.092;-89.268;2023-08-08T04:48:46;2.22;;;1.40;;
78368;SDS011;71113;43.092;-89.268;2023-08-08T04:51:12;1.73;;;0.98;;
78368;SDS011;71113;43.092;-89.268;2023-08-08T04:53:38;2.13;;;1.30;;
78368;SDS011;71113;43.092;-89.268;2023-08-08T04:56:04;2.30;;;1.45;;
78368;SDS011;71113;43.092;-89.268;2023-08-08T04:58:30;2.15;;;1.20;;
78368;SDS011;71113;43.092;-89.268;2023-08-08T05:00:56;1.98;;;1.20;;
78368;SDS011;71113;43.092;-89.268;2023-08-08T05:03:21;2.75;;;1.30;;
78368;SDS011;71113;43.092;-89.268;2023-08-08T05:05:47;1.67;;;1.17;;
78368;SDS011;71113;43.092;-89.268;2023-08-08T05:08:13;2.08;;;1.20;;
78368;SDS011;71113;43.092;-89.268;2023-08-08T05:10:39;2.15;;;1.27;;
78368;SDS011;71113;43.092;-89.268;2023-08-08T05:13:05;2.00;;;1.10;;
78368;SDS011;71113;43.092;-89.268;2023-08-08T05:15:31;2.45;;;1.20;;
78368;SDS011;71113;43.092;-89.268;2023-08-08T05:17:57;1.70;;;1.10;;
78368;SDS011;71113;43.092;-89.268;2023-08-08T05:20:24;1.77;;;1.05;;
78368;SDS011;71113;43.092;-89.268;2023-08-08T05:22:50;1.60;;;0.90;;
78368;SDS011;71113;43.092;-89.268;2023-08-08T05:25:16;1.60;;;0.95;;
78368;SDS011;71113;43.092;-89.268;2023-08-08T05:27:42;2.20;;;1.25;;
78368;SDS011;71113;43.092;-89.268;2023-08-08T05:30:08;1.80;;;1.10;;
78368;SDS011;71113;43.092;-89.268;2023-08-08T05:32:35;2.08;;;1.25;;
78368;SDS011;71113;43.092;-89.268;2023-08-08T05:35:01;2.13;;;1.15;;
78368;SDS011;71113;43.092;-89.268;2023-08-08T05:37:29;1.42;;;0.88;;
78368;SDS011;71113;43.092;-89.268;2023-08-08T05:39:55;1.33;;;1.00;;
78368;SDS011;71113;43.092;-89.268;2023-08-08T05:42:21;1.92;;;1.10;;
78368;SDS011;71113;43.092;-89.268;2023-08-08T05:44:47;2.33;;;1.40;;
78368;SDS011;71113;43.092;-89.268;2023-08-08T05:47:13;1.63;;;1.00;;
78368;SDS011;71113;43.092;-89.268;2023-08-08T05:49:39;2.20;;;1.20;;
78368;SDS011;71113;43.092;-89.268;2023-08-08T05:52:08;1.70;;;0.90;;
78368;SDS011;71113;43.092;-89.268;2023-08-08T05:54:34;1.25;;;0.80;;
78368;SDS011;71113;43.092;-89.268;2023-08-08T05:57:20;1.60;;;0.93;;
78368;SDS011;71113;43.092;-89.268;2023-08-08T05:59:47;1.48;;;0.80;;
78368;SDS011;71113;43.092;-89.268;2023-08-08T06:02:13;1.95;;;1.10;;
78368;SDS011;71113;43.092;-89.268;2023-08-08T06:04:39;1.50;;;1.13;;
78368;SDS011;71113;43.092;-89.268;2023-08-08T06:07:05;1.17;;;0.90;;
78368;SDS011;71113;43.092;-89.268;2023-08-08T06:09:31;1.45;;;0.95;;
78368;SDS011;71113;43.092;-89.268;2023-08-08T06:11:57;1.88;;;0.90;;
78368;SDS011;71113;43.092;-89.268;2023-08-08T06:14:23;1.33;;;0.73;;
78368;SDS011;71113;43.092;-89.268;2023-08-08T06:16:49;1.60;;;0.90;;
78368;SDS011;71113;43.092;-89.268;2023-08-08T06:19:15;1.77;;;1.08;;
78368;SDS011;71113;43.092;-89.268;2023-08-08T06:21:41;1.42;;;0.90;;
78368;SDS011;71113;43.092;-89.268;2023-08-08T06:24:07;1.17;;;0.77;;
78368;SDS011;71113;43.092;-89.268;2023-08-08T06:26:33;1.42;;;0.90;;
78368;SDS011;71113;43.092;-89.268;2023-08-08T06:28:59;2.33;;;0.93;;
78368;SDS011;71113;43.092;-89.268;2023-08-08T06:31:25;1.88;;;1.02;;
78368;SDS011;71113;43.092;-89.268;2023-08-08T06:33:51;1.15;;;0.70;;
78368;SDS011;71113;43.092;-89.268;2023-08-08T06:36:17;1.88;;;1.08;;
78368;SDS011;71113;43.092;-89.268;2023-08-08T06:38:42;1.58;;;0.80;;
78368;SDS011;71113;43.092;-89.268;2023-08-08T06:41:08;1.80;;;1.10;;
78368;SDS011;71113;43.092;-89.268;2023-08-08T06:43:34;1.52;;;1.00;;
78368;SDS011;71113;43.092;-89.268;2023-08-08T06:46:00;1.55;;;0.98;;
78368;SDS011;71113;43.092;-89.268;2023-08-08T06:48:26;1.67;;;0.90;;
78368;SDS011;71113;43.092;-89.268;2023-08-08T06:50:52;2.35;;;1.17;;
78368;SDS011;71113;43.092;-89.268;2023-08-08T06:53:18;1.55;;;1.00;;
78368;SDS011;71113;43.092;-89.268;2023-08-08T06:55:44;1.27;;;1.00;;
78368;SDS011;71113;43.092;-89.268;2023-08-08T06:58:10;1.38;;;0.88;;
78368;SDS011;71113;43.092;-89.268;2023-08-08T07:00:36;1.02;;;0.73;;
78368;SDS011;71113;43.092;-89.268;2023-08-08T07:03:02;1.60;;;1.00;;
78368;SDS011;71113;43.092;-89.268;2023-08-08T07:05:28;1.40;;;0.77;;
78368;SDS011;71113;43.092;-89.268;2023-08-08T07:07:54;1.48;;;0.82;;
78368;SDS011;71113;43.092;-89.268;2023-08-08T07:10:20;1.95;;;1.00;;
78368;SDS011;71113;43.092;-89.268;2023-08-08T07:12:46;2.35;;;1.30;;
78368;SDS011;71113;43.092;-89.268;2023-08-08T07:15:12;1.02;;;0.70;;
78368;SDS011;71113;43.092;-89.268;2023-08-08T07:17:38;1.55;;;0.95;;
78368;SDS011;71113;43.092;-89.268;2023-08-08T07:20:04;1.50;;;1.00;;
78368;SDS011;71113;43.092;-89.268;2023-08-08T07:22:31;1.92;;;1.10;;
78368;SDS011;71113;43.092;-89.268;2023-08-08T07:24:58;1.80;;;0.90;;
78368;SDS011;71113;43.092;-89.268;2023-08-08T07:27:25;1.58;;;0.90;;
78368;SDS011;71113;43.092;-89.268;2023-08-08T07:29:52;1.77;;;1.00;;
78368;SDS011;71113;43.092;-89.268;2023-08-08T07:32:18;1.63;;;0.95;;
78368;SDS011;71113;43.092;-89.268;2023-08-08T07:34:44;1.58;;;0.98;;
78368;SDS011;71113;43.092;-89.268;2023-08-08T07:37:09;1.17;;;0.75;;
78368;SDS011;71113;43.092;-89.268;2023-08-08T07:39:55;1.42;;;0.90;;
78368;SDS011;71113;43.092;-89.268;2023-08-08T07:42:21;1.23;;;0.90;;
78368;SDS011;71113;43.092;-89.268;2023-08-08T07:44:47;1.00;;;0.80;;
78368;SDS011;71113;43.092;-89.268;2023-08-08T07:47:13;1.77;;;0.90;;
78368;SDS011;71113;43.092;-89.268;2023-08-08T07:49:39;1.05;;;0.75;;
78368;SDS011;71113;43.092;-89.268;2023-08-08T07:52:05;1.10;;;0.80;;
78368;SDS011;71113;43.092;-89.268;2023-08-08T07:54:32;1.73;;;0.95;;
78368;SDS011;71113;43.092;-89.268;2023-08-08T07:56:58;1.30;;;0.77;;
78368;SDS011;71113;43.092;-89.268;2023-08-08T07:59:24;2.10;;;1.10;;
78368;SDS011;71113;43.092;-89.268;2023-08-08T08:01:50;1.65;;;0.95;;
78368;SDS011;71113;43.092;-89.268;2023-08-08T08:04:16;1.80;;;0.90;;
78368;SDS011;71113;43.092;-89.268;2023-08-08T08:06:41;1.50;;;0.85;;
78368;SDS011;71113;43.092;-89.268;2023-08-08T08:09:07;1.40;;;0.93;;
78368;SDS011;71113;43.092;-89.268;2023-08-08T08:11:33;1.80;;;0.98;;
78368;SDS011;71113;43.092;-89.268;2023-08-08T08:13:59;1.45;;;0.90;;
78368;SDS011;71113;43.092;-89.268;2023-08-08T08:16:25;1.42;;;0.88;;
78368;SDS011;71113;43.092;-89.268;2023-08-08T08:18:51;1.15;;;0.90;;
78368;SDS011;71113;43.092;-89.268;2023-08-08T08:21:17;1.48;;;0.80;;
78368;SDS011;71113;43.092;-89.268;2023-08-08T08:23:43;1.10;;;0.68;;
78368;SDS011;71113;43.092;-89.268;2023-08-08T08:26:09;1.50;;;0.90;;
78368;SDS011;71113;43.092;-89.268;2023-08-08T08:28:35;1.58;;;0.80;;
78368;SDS011;71113;43.092;-89.268;2023-08-08T08:31:05;1.98;;;0.90;;
78368;SDS011;71113;43.092;-89.268;2023-08-08T08:33:31;2.05;;;1.10;;
78368;SDS011;71113;43.092;-89.268;2023-08-08T08:35:57;1.35;;;0.88;;
78368;SDS011;71113;43.092;-89.268;2023-08-08T08:38:23;1.25;;;0.82;;
78368;SDS011;71113;43.092;-89.268;2023-08-08T08:40:49;1.10;;;0.70;;
78368;SDS011;71113;43.092;-89.268;2023-08-08T08:43:19;1.40;;;0.75;;
78368;SDS011;71113;43.092;-89.268;2023-08-08T08:45:48;1.35;;;0.80;;
78368;SDS011;71113;43.092;-89.268;2023-08-08T08:48:17;1.30;;;0.70;;
78368;SDS011;71113;43.092;-89.268;2023-08-08T08:50:45;1.30;;;0.90;;
78368;SDS011;71113;43.092;-89.268;2023-08-08T08:53:13;0.93;;;0.63;;
78368;SDS011;71113;43.092;-89.268;2023-08-08T08:55:40;1.00;;;0.63;;
78368;SDS011;71113;43.092;-89.268;2023-08-08T08:58:06;0.88;;;0.65;;
78368;SDS011;71113;43.092;-89.268;2023-08-08T09:00:33;1.35;;;0.80;;
78368;SDS011;71113;43.092;-89.268;2023-08-08T09:03:01;1.58;;;0.95;;
78368;SDS011;71113;43.092;-89.268;2023-08-08T09:05:27;0.65;;;0.60;;
78368;SDS011;71113;43.092;-89.268;2023-08-08T09:07:53;1.15;;;0.73;;
78368;SDS011;71113;43.092;-89.268;2023-08-08T09:10:19;1.55;;;0.93;;
78368;SDS011;71113;43.092;-89.268;2023-08-08T09:12:45;1.70;;;0.90;;
78368;SDS011;71113;43.092;-89.268;2023-08-08T09:15:12;1.35;;;0.82;;
78368;SDS011;71113;43.092;-89.268;2023-08-08T09:17:42;1.92;;;0.98;;
78368;SDS011;71113;43.092;-89.268;2023-08-08T09:20:09;1.95;;;1.08;;
78368;SDS011;71113;43.092;-89.268;2023-08-08T09:22:36;1.45;;;0.88;;
78368;SDS011;71113;43.092;-89.268;2023-08-08T09:25:03;1.25;;;0.80;;
78368;SDS011;71113;43.092;-89.268;2023-08-08T09:27:30;2.28;;;0.93;;
78368;SDS011;71113;43.092;-89.268;2023-08-08T09:29:56;1.42;;;0.80;;
78368;SDS011;71113;43.092;-89.268;2023-08-08T09:32:22;1.58;;;0.80;;
78368;SDS011;71113;43.092;-89.268;2023-08-08T09:34:48;1.38;;;0.85;;
78368;SDS011;71113;43.092;-89.268;2023-08-08T09:37:14;1.58;;;1.08;;
78368;SDS011;71113;43.092;-89.268;2023-08-08T09:39:40;1.27;;;0.85;;
78368;SDS011;71113;43.092;-89.268;2023-08-08T09:42:07;1.83;;;1.17;;
78368;SDS011;71113;43.092;-89.268;2023-08-08T09:44:36;0.93;;;0.70;;
78368;SDS011;71113;43.092;-89.268;2023-08-08T09:47:02;1.42;;;0.73;;
78368;SDS011;71113;43.092;-89.268;2023-08-08T09:49:28;1.80;;;1.00;;
78368;SDS011;71113;43.092;-89.268;2023-08-08T09:51:56;1.50;;;0.90;;
78368;SDS011;71113;43.092;-89.268;2023-08-08T09:54:23;1.73;;;1.00;;
78368;SDS011;71113;43.092;-89.268;2023-08-08T09:56:49;1.65;;;1.00;;
78368;SDS011;71113;43.092;-89.268;2023-08-08T09:59:17;1.10;;;0.77;;
78368;SDS011;71113;43.092;-89.268;2023-08-08T10:01:43;2.03;;;1.25;;
78368;SDS011;71113;43.092;-89.268;2023-08-08T10:04:12;2.13;;;1.00;;
78368;SDS011;71113;43.092;-89.268;2023-08-08T10:06:38;1.55;;;1.00;;
78368;SDS011;71113;43.092;-89.268;2023-08-08T10:09:04;1.60;;;1.02;;
78368;SDS011;71113;43.092;-89.268;2023-08-08T10:11:31;1.45;;;0.93;;
78368;SDS011;71113;43.092;-89.268;2023-08-08T10:14:00;1.48;;;0.77;;
78368;SDS011;71113;43.092;-89.268;2023-08-08T10:16:27;0.98;;;0.70;;
78368;SDS011;71113;43.092;-89.268;2023-08-08T10:19:01;1.08;;;0.77;;
78368;SDS011;71113;43.092;-89.268;2023-08-08T10:21:31;2.00;;;1.00;;
78368;SDS011;71113;43.092;-89.268;2023-08-08T10:24:04;2.30;;;1.10;;
78368;SDS011;71113;43.092;-89.268;2023-08-08T10:26:32;1.45;;;0.85;;
78368;SDS011;71113;43.092;-89.268;2023-08-08T10:28:58;0.98;;;0.75;;
78368;SDS011;71113;43.092;-89.268;2023-08-08T10:31:26;1.75;;;1.00;;
78368;SDS011;71113;43.092;-89.268;2023-08-08T10:34:01;1.42;;;0.80;;
78368;SDS011;71113;43.092;-89.268;2023-08-08T10:36:42;2.30;;;1.20;;
78368;SDS011;71113;43.092;-89.268;2023-08-08T10:39:11;2.20;;;1.00;;
78368;SDS011;71113;43.092;-89.268;2023-08-08T10:41:48;1.33;;;0.90;;
78368;SDS011;71113;43.092;-89.268;2023-08-08T10:44:24;1.55;;;1.00;;
78368;SDS011;71113;43.092;-89.268;2023-08-08T10:46:51;1.40;;;0.88;;
78368;SDS011;71113;43.092;-89.268;2023-08-08T10:49:18;1.65;;;0.90;;
78368;SDS011;71113;43.092;-89.268;2023-08-08T10:51:45;1.75;;;1.13;;
78368;SDS011;71113;43.092;-89.268;2023-08-08T10:54:13;1.27;;;0.73;;
78368;SDS011;71113;43.092;-89.268;2023-08-08T10:56:39;1.30;;;0.85;;
78368;SDS011;71113;43.092;-89.268;2023-08-08T10:59:15;1.83;;;1.00;;
78368;SDS011;71113;43.092;-89.268;2023-08-08T11:01:47;1.45;;;0.90;;
78368;SDS011;71113;43.092;-89.268;2023-08-08T11:04:15;1.65;;;1.02;;
78368;SDS011;71113;43.092;-89.268;2023-08-08T11:06:43;1.58;;;0.90;;
78368;SDS011;71113;43.092;-89.268;2023-08-08T11:09:10;1.85;;;1.05;;
78368;SDS011;71113;43.092;-89.268;2023-08-08T11:11:36;1.63;;;0.82;;
78368;SDS011;71113;43.092;-89.268;2023-08-08T11:14:14;1.77;;;0.90;;
78368;SDS011;71113;43.092;-89.268;2023-08-08T11:16:40;1.77;;;1.05;;
78368;SDS011;71113;43.092;-89.268;2023-08-08T11:19:07;1.70;;;0.90;;
78368;SDS011;71113;43.092;-89.268;2023-08-08T11:21:35;1.63;;;1.05;;
78368;SDS011;71113;43.092;-89.268;2023-08-08T11:24:05;1.85;;;1.20;;
78368;SDS011;71113;43.092;-89.268;2023-08-08T11:26:35;2.38;;;1.35;;
78368;SDS011;71113;43.092;-89.268;2023-08-08T11:29:03;1.90;;;1.02;;
78368;SDS011;71113;43.092;-89.268;2023-08-08T11:31:31;4.45;;;1.40;;
78368;SDS011;71113;43.092;-89.268;2023-08-08T11:33:58;2.70;;;1.30;;
78368;SDS011;71113;43.092;-89.268;2023-08-08T11:36:25;2.75;;;1.60;;
78368;SDS011;71113;43.092;-89.268;2023-08-08T11:38:54;3.65;;;1.90;;
78368;SDS011;71113;43.092;-89.268;2023-08-08T11:41:33;5.75;;;2.75;;
78368;SDS011;71113;43.092;-89.268;2023-08-08T11:44:02;8.98;;;4.03;;
78368;SDS011;71113;43.092;-89.268;2023-08-08T11:46:33;8.13;;;4.55;;
78368;SDS011;71113;43.092;-89.268;2023-08-08T11:49:03;10.95;;;4.63;;
78368;SDS011;71113;43.092;-89.268;2023-08-08T11:51:32;12.68;;;6.53;;
78368;SDS011;71113;43.092;-89.268;2023-08-08T11:53:59;11.05;;;5.82;;
78368;SDS011;71113;43.092;-89.268;2023-08-08T11:56:28;9.90;;;6.05;;
78368;SDS011;71113;43.092;-89.268;2023-08-08T11:58:54;8.65;;;5.07;;
78368;SDS011;71113;43.092;-89.268;2023-08-08T12:01:26;12.18;;;7.00;;
78368;SDS011;71113;43.092;-89.268;2023-08-08T12:03:52;11.05;;;5.57;;
78368;SDS011;71113;43.092;-89.268;2023-08-08T12:06:19;11.10;;;5.70;;
78368;SDS011;71113;43.092;-89.268;2023-08-08T12:08:46;9.77;;;4.97;;
78368;SDS011;71113;43.092;-89.268;2023-08-08T12:11:12;7.45;;;4.13;;
78368;SDS011;71113;43.092;-89.268;2023-08-08T12:13:43;6.97;;;4.05;;
78368;SDS011;71113;43.092;-89.268;2023-08-08T12:16:10;10.38;;;3.88;;
78368;SDS011;71113;43.092;-89.268;2023-08-08T12:18:37;5.93;;;3.50;;
78368;SDS011;71113;43.092;-89.268;2023-08-08T12:21:04;6.35;;;3.88;;
78368;SDS011;71113;43.092;-89.268;2023-08-08T12:23:30;5.32;;;2.70;;
78368;SDS011;71113;43.092;-89.268;2023-08-08T12:25:57;4.63;;;2.92;;
78368;SDS011;71113;43.092;-89.268;2023-08-08T12:28:24;5.15;;;2.75;;
78368;SDS011;71113;43.092;-89.268;2023-08-08T12:30:50;5.57;;;2.80;;
78368;SDS011;71113;43.092;-89.268;2023-08-08T12:33:17;4.43;;;2.47;;
78368;SDS011;71113;43.092;-89.268;2023-08-08T12:35:43;4.90;;;2.38;;
78368;SDS011;71113;43.092;-89.268;2023-08-08T12:38:16;4.05;;;2.35;;
78368;SDS011;71113;43.092;-89.268;2023-08-08T12:40:42;3.40;;;2.25;;
78368;SDS011;71113;43.092;-89.268;2023-08-08T12:43:09;3.92;;;2.28;;
78368;SDS011;71113;43.092;-89.268;2023-08-08T12:45:38;6.88;;;2.35;;
78368;SDS011;71113;43.092;-89.268;2023-08-08T12:48:05;3.45;;;1.92;;
78368;SDS011;71113;43.092;-89.268;2023-08-08T12:50:31;5.85;;;2.20;;
78368;SDS011;71113;43.092;-89.268;2023-08-08T12:52:57;77.68;;;30.27;;
78368;SDS011;71113;43.092;-89.268;2023-08-08T12:55:23;107.50;;;41.15;;
78368;SDS011;71113;43.092;-89.268;2023-08-08T12:57:49;101.68;;;38.65;;
78368;SDS011;71113;43.092;-89.268;2023-08-08T13:00:16;93.93;;;34.90;;
78368;SDS011;71113;43.092;-89.268;2023-08-08T13:02:42;85.00;;;32.85;;
78368;SDS011;71113;43.092;-89.268;2023-08-08T13:05:09;71.95;;;28.35;;
78368;SDS011;71113;43.092;-89.268;2023-08-08T13:07:35;73.35;;;28.27;;
78368;SDS011;71113;43.092;-89.268;2023-08-08T13:10:01;61.28;;;24.27;;
78368;SDS011;71113;43.092;-89.268;2023-08-08T13:12:27;56.95;;;23.20;;
78368;SDS011;71113;43.092;-89.268;2023-08-08T13:14:53;52.17;;;20.70;;
78368;SDS011;71113;43.092;-89.268;2023-08-08T13:17:19;50.25;;;19.08;;
78368;SDS011;71113;43.092;-89.268;2023-08-08T13:19:45;45.55;;;18.98;;
78368;SDS011;71113;43.092;-89.268;2023-08-08T13:22:11;43.45;;;17.30;;
78368;SDS011;71113;43.092;-89.268;2023-08-08T13:24:37;38.38;;;16.30;;
78368;SDS011;71113;43.092;-89.268;2023-08-08T13:27:21;38.85;;;15.30;;
78368;SDS011;71113;43.092;-89.268;2023-08-08T13:29:47;36.13;;;13.77;;
78368;SDS011;71113;43.092;-89.268;2023-08-08T13:32:15;30.73;;;12.90;;
78368;SDS011;71113;43.092;-89.268;2023-08-08T13:34:40;27.63;;;11.15;;
78368;SDS011;71113;43.092;-89.268;2023-08-08T13:37:06;23.85;;;10.23;;
78368;SDS011;71113;43.092;-89.268;2023-08-08T13:39:32;25.13;;;10.95;;
78368;SDS011;71113;43.092;-89.268;2023-08-08T13:41:58;23.58;;;10.48;;
78368;SDS011;71113;43.092;-89.268;2023-08-08T13:44:24;24.52;;;10.18;;
78368;SDS011;71113;43.092;-89.268;2023-08-08T13:46:50;22.80;;;10.73;;
78368;SDS011;71113;43.092;-89.268;2023-08-08T13:49:16;20.50;;;9.23;;
78368;SDS011;71113;43.092;-89.268;2023-08-08T13:51:42;21.25;;;9.27;;
78368;SDS011;71113;43.092;-89.268;2023-08-08T13:54:09;19.55;;;8.27;;
78368;SDS011;71113;43.092;-89.268;2023-08-08T13:56:35;21.35;;;9.30;;
78368;SDS011;71113;43.092;-89.268;2023-08-08T13:59:01;19.42;;;9.05;;
78368;SDS011;71113;43.092;-89.268;2023-08-08T14:01:27;21.25;;;8.32;;
78368;SDS011;71113;43.092;-89.268;2023-08-08T14:03:52;19.33;;;8.77;;
78368;SDS011;71113;43.092;-89.268;2023-08-08T14:06:18;17.70;;;8.02;;
78368;SDS011;71113;43.092;-89.268;2023-08-08T14:08:44;17.98;;;7.78;;
78368;SDS011;71113;43.092;-89.268;2023-08-08T14:11:11;18.10;;;8.23;;
78368;SDS011;71113;43.092;-89.268;2023-08-08T14:13:37;17.20;;;7.25;;
78368;SDS011;71113;43.092;-89.268;2023-08-08T14:16:03;21.52;;;8.25;;
78368;SDS011;71113;43.092;-89.268;2023-08-08T14:18:29;59.88;;;25.65;;
78368;SDS011;71113;43.092;-89.268;2023-08-08T14:20:55;82.50;;;32.05;;